Time;durP1;ratioP1;P1;durP2;ratioP2;P2;SDS_P1;SDS_P2;PMS_P1;PMS_P2;Temp;Humidity;BMP_temperature;BMP_pressure;BME280_temperature;BME280_humidity;BME280_pressure;Samples;Min_cycle;Max_cycle;Signal;HPM_P1;HPM_P2
2022/04/26 03:38:24;;;;;;;9.17;4.47;;;9.20;99.90;;;;;;5046845;28;20196;-74
2022/04/26 03:40:52;;;;;;;6.87;4.03;;;9.20;99.90;;;;;;5048130;28;20211;-74
2022/04/26 03:43:20;;;;;;;4.83;4.37;;;9.20;99.90;;;;;;5046070;28;20267;-74
2022/04/26 03:45:49;;;;;;;6.50;4.37;;;9.20;99.90;;;;;;5047657;28;20616;-73
2022/04/26 03:48:17;;;;;;;7.30;4.17;;;9.20;99.90;;;;;;5042228;28;20252;-74
2022/04/26 03:50:47;;;;;;;4.60;4.30;;;9.20;99.90;;;;;;5042935;28;20291;-73
2022/04/26 03:53:16;;;;;;;6.67;4.30;;;9.20;99.90;;;;;;5049916;28;20189;-74
2022/04/26 03:55:44;;;;;;;5.30;4.67;;;9.20;99.90;;;;;;5048603;28;20276;-73
2022/04/26 03:58:13;;;;;;;6.83;4.70;;;9.20;99.90;;;;;;5045256;28;20228;-74
2022/04/26 04:00:41;;;;;;;4.87;4.37;;;9.20;99.90;;;;;;5047443;28;20609;-73
2022/04/26 04:03:13;;;;;;;4.43;3.97;;;9.20;99.90;;;;;;5049287;28;20204;-74
2022/04/26 04:06:20;;;;;;;9.20;4.50;;;9.20;99.90;;;;;;5043720;28;20709;-74
2022/04/26 04:08:48;;;;;;;4.97;4.57;;;9.10;99.90;;;;;;5047091;28;20193;-74
2022/04/26 04:11:16;;;;;;;5.20;4.77;;;9.10;99.90;;;;;;5044144;28;20761;-75
2022/04/26 04:13:45;;;;;;;12.33;4.93;;;9.10;99.90;;;;;;5044690;28;20205;-75
2022/04/26 04:16:13;;;;;;;6.17;4.70;;;9.20;99.90;;;;;;5045643;28;20279;-75
2022/04/26 04:21:29;;;;;;;6.60;4.80;;;9.20;99.90;;;;;;5043034;28;20192;-74
2022/04/26 04:23:57;;;;;;;5.03;4.53;;;9.20;99.90;;;;;;5044738;28;20206;-74
2022/04/26 04:26:25;;;;;;;7.77;4.67;;;9.20;99.90;;;;;;5044560;28;20296;-74
2022/04/26 04:28:56;;;;;;;4.83;4.40;;;9.20;99.90;;;;;;5043457;28;20303;-74
2022/04/26 04:31:24;;;;;;;5.37;4.50;;;9.20;99.90;;;;;;5044165;28;20852;-75
2022/04/26 04:33:53;;;;;;;5.77;4.40;;;9.20;99.90;;;;;;5042674;28;20237;-74
2022/04/26 04:36:21;;;;;;;7.77;4.60;;;9.10;99.90;;;;;;5045431;28;20290;-75
2022/04/26 04:38:51;;;;;;;5.13;4.63;;;9.10;99.90;;;;;;5045695;28;20209;-74
2022/04/26 04:41:19;;;;;;;4.90;4.50;;;9.10;99.90;;;;;;5041054;28;20772;-71
2022/04/26 04:43:48;;;;;;;5.23;4.83;;;9.00;99.90;;;;;;5044862;28;20197;-74
2022/04/26 04:46:16;;;;;;;5.97;4.80;;;9.00;99.90;;;;;;5041161;28;20799;-74
2022/04/26 04:48:44;;;;;;;7.47;4.87;;;9.10;99.90;;;;;;5041457;28;20193;-73
2022/04/26 04:51:13;;;;;;;4.97;4.40;;;9.10;99.90;;;;;;5040961;28;20229;-75
2022/04/26 04:53:41;;;;;;;6.03;4.30;;;9.10;99.90;;;;;;5044241;28;20189;-74
2022/04/26 04:56:11;;;;;;;11.47;4.73;;;9.10;99.90;;;;;;5043906;28;20440;-74
2022/04/26 04:58:39;;;;;;;4.77;4.40;;;9.00;99.90;;;;;;5045646;28;20189;-75
2022/04/26 05:01:08;;;;;;;5.70;4.53;;;9.00;99.90;;;;;;5042585;28;20203;-74
2022/04/26 05:03:36;;;;;;;4.87;4.40;;;9.00;99.90;;;;;;5043744;28;20204;-74
2022/04/26 05:06:05;;;;;;;5.03;4.63;;;9.10;99.90;;;;;;5044643;28;20188;-73
2022/04/26 05:08:33;;;;;;;4.83;4.43;;;9.00;99.90;;;;;;5036640;28;20635;-73
2022/04/26 05:11:01;;;;;;;5.40;4.90;;;9.00;99.90;;;;;;5046844;28;20205;-73
2022/04/26 05:13:31;;;;;;;4.50;4.20;;;9.00;99.90;;;;;;5040225;28;20200;-72
2022/04/26 05:15:59;;;;;;;9.23;4.73;;;9.10;99.90;;;;;;5043707;28;20200;-71
2022/04/26 05:18:28;;;;;;;4.50;4.30;;;9.10;99.90;;;;;;5042469;28;20858;-73
2022/04/26 05:20:57;;;;;;;10.03;4.50;;;9.10;99.90;;;;;;5043501;28;20205;-73
2022/04/26 05:26:11;;;;;;;8.60;4.67;;;9.10;99.90;;;;;;5043690;28;20188;-73
2022/04/26 05:28:40;;;;;;;4.57;4.27;;;9.10;99.90;;;;;;5036996;28;20221;-72
2022/04/26 05:31:08;;;;;;;5.13;4.53;;;9.10;99.90;;;;;;5038959;28;20831;-72
2022/04/26 05:33:37;;;;;;;5.03;4.57;;;9.10;99.90;;;;;;5040262;28;20236;-73
2022/04/26 05:36:06;;;;;;;5.67;4.37;;;9.10;99.90;;;;;;5042328;28;20193;-72
2022/04/26 05:38:34;;;;;;;4.43;4.00;;;9.20;99.90;;;;;;5044175;28;20192;-73
2022/04/26 05:41:03;;;;;;;4.50;4.20;;;9.20;99.90;;;;;;5047144;28;20675;-73
2022/04/26 05:43:33;;;;;;;4.47;4.10;;;9.30;99.90;;;;;;5045319;28;20251;-76
2022/04/26 05:46:02;;;;;;;4.80;4.40;;;9.20;99.90;;;;;;5043395;28;20730;-73
2022/04/26 05:48:31;;;;;;;5.33;4.40;;;9.20;99.90;;;;;;5047800;28;20284;-73
2022/04/26 05:50:59;;;;;;;4.27;4.07;;;9.20;99.90;;;;;;5043860;28;20219;-73
2022/04/26 05:53:27;;;;;;;5.00;4.10;;;9.20;99.90;;;;;;5024169;28;20201;-73
2022/04/26 05:55:55;;;;;;;4.40;4.00;;;9.30;99.90;;;;;;5043679;28;20193;-73
2022/04/26 05:58:24;;;;;;;4.63;4.27;;;9.30;99.90;;;;;;5044124;28;20204;-74
2022/04/26 06:00:52;;;;;;;4.43;4.03;;;9.30;99.90;;;;;;5044719;28;20681;-73
2022/04/26 06:03:22;;;;;;;4.70;4.20;;;9.40;99.90;;;;;;5046064;28;20199;-75
2022/04/26 06:05:50;;;;;;;4.97;4.37;;;9.50;99.90;;;;;;5040320;28;20211;-71
2022/04/26 06:08:18;;;;;;;6.63;4.70;;;9.50;99.90;;;;;;5042960;28;20223;-74
2022/04/26 06:10:47;;;;;;;4.80;3.83;;;9.50;99.90;;;;;;5044519;28;20216;-74
2022/04/26 06:13:15;;;;;;;6.73;4.10;;;9.50;99.90;;;;;;5046973;28;20196;-74
2022/04/26 06:15:43;;;;;;;4.57;3.73;;;9.60;99.90;;;;;;5046512;28;20284;-74
2022/04/26 06:18:12;;;;;;;5.20;3.90;;;9.70;99.90;;;;;;5038123;28;20206;-74
2022/04/26 06:20:41;;;;;;;5.77;4.03;;;9.80;99.90;;;;;;5041781;28;20200;-74
2022/04/26 06:23:10;;;;;;;4.30;4.00;;;9.90;99.90;;;;;;5049102;28;20213;-74
2022/04/26 06:25:39;;;;;;;4.97;4.20;;;9.80;99.90;;;;;;5048155;28;20195;-74
2022/04/26 06:28:09;;;;;;;4.03;3.70;;;9.90;99.90;;;;;;5049537;28;20867;-74
2022/04/26 06:30:38;;;;;;;4.30;3.63;;;9.90;99.90;;;;;;5045371;28;20694;-74
2022/04/26 06:33:07;;;;;;;4.40;4.00;;;9.90;99.90;;;;;;5046860;28;20192;-73
2022/04/26 06:35:44;;;;;;;5.43;4.17;;;9.90;99.90;;;;;;5048743;28;20659;-73
2022/04/26 06:38:13;;;;;;;4.43;3.83;;;9.90;99.90;;;;;;5047817;28;20356;-74
2022/04/26 06:40:41;;;;;;;4.63;4.23;;;9.90;99.90;;;;;;5046186;28;20192;-73
2022/04/26 06:43:10;;;;;;;4.80;4.20;;;9.90;99.90;;;;;;5049061;28;20204;-74
2022/04/26 06:45:39;;;;;;;5.07;4.57;;;9.80;99.90;;;;;;5046440;28;20450;-73
2022/04/26 06:48:08;;;;;;;5.23;4.33;;;9.90;99.90;;;;;;5049360;28;20250;-73
2022/04/26 06:50:37;;;;;;;4.77;4.40;;;9.90;99.90;;;;;;5043362;28;20292;-74
2022/04/26 06:53:07;;;;;;;6.67;4.20;;;9.80;99.90;;;;;;5050107;28;20231;-73
2022/04/26 06:55:35;;;;;;;4.63;4.30;;;9.90;99.90;;;;;;5045619;28;20189;-74
2022/04/26 06:58:04;;;;;;;4.90;4.47;;;9.90;99.90;;;;;;5045963;28;20284;-73
2022/04/26 07:00:32;;;;;;;8.20;4.77;;;9.90;99.90;;;;;;5049250;28;20188;-73
2022/04/26 07:03:01;;;;;;;6.63;4.60;;;9.90;99.90;;;;;;5045934;28;20228;-73
2022/04/26 07:05:29;;;;;;;6.43;5.10;;;10.00;99.90;;;;;;5046351;28;20201;-73
2022/04/26 07:07:58;;;;;;;6.97;4.67;;;10.00;99.90;;;;;;5042137;28;20213;-72
2022/04/26 07:10:28;;;;;;;5.30;4.80;;;10.10;99.90;;;;;;5049533;28;20213;-74
2022/04/26 07:12:57;;;;;;;5.40;4.90;;;10.10;99.90;;;;;;5048127;28;20307;-73
2022/04/26 07:15:26;;;;;;;5.33;4.73;;;10.10;99.90;;;;;;5045687;28;20768;-71
2022/04/26 07:17:55;;;;;;;5.50;4.83;;;10.20;99.90;;;;;;5046651;28;20208;-73
2022/04/26 07:20:24;;;;;;;5.27;4.77;;;10.20;99.90;;;;;;5048254;28;20188;-73
2022/04/26 07:22:52;;;;;;;5.70;5.10;;;10.20;99.90;;;;;;5045543;28;20204;-72
2022/04/26 07:25:21;;;;;;;6.17;5.43;;;10.30;99.90;;;;;;5047209;28;20284;-73
2022/04/26 07:27:50;;;;;;;7.60;5.63;;;10.40;99.90;;;;;;5041999;28;20276;-73
2022/04/26 07:30:19;;;;;;;12.93;5.90;;;10.60;99.90;;;;;;5044994;28;20671;-73
2022/04/26 07:35:35;;;;;;;7.37;5.57;;;11.00;99.90;;;;;;5020741;28;20198;-72
2022/04/26 07:38:07;;;;;;;11.70;6.37;;;11.30;99.90;;;;;;5047425;28;20284;-73
2022/04/26 07:40:35;;;;;;;8.87;5.80;;;11.60;99.90;;;;;;5043451;28;20196;-73
2022/04/26 07:43:06;;;;;;;8.30;5.60;;;11.80;99.90;;;;;;5045881;28;20203;-73
2022/04/26 07:45:39;;;;;;;5.67;5.17;;;12.10;99.90;;;;;;5045057;28;20203;-74
2022/04/26 07:48:08;;;;;;;8.37;6.07;;;12.40;99.90;;;;;;5048737;28;20219;-73
2022/04/26 07:50:37;;;;;;;7.30;5.60;;;12.50;99.90;;;;;;5045761;28;20250;-73
2022/04/26 07:53:06;;;;;;;6.10;5.50;;;12.50;99.90;;;;;;5046507;28;20582;-73
2022/04/26 07:55:37;;;;;;;6.27;5.73;;;12.40;99.90;;;;;;5043394;28;20256;-73
2022/04/26 07:58:07;;;;;;;9.87;6.00;;;12.20;99.90;;;;;;5045273;28;20699;-73
2022/04/26 08:00:35;;;;;;;8.87;6.40;;;12.20;99.90;;;;;;5047143;28;20229;-74
2022/04/26 08:03:05;;;;;;;11.30;6.43;;;12.20;99.90;;;;;;5044017;28;20215;-73
2022/04/26 08:05:34;;;;;;;9.53;6.13;;;12.20;99.90;;;;;;5035498;28;20689;-71
2022/04/26 08:08:02;;;;;;;10.23;5.80;;;12.10;99.90;;;;;;5046285;28;20205;-73
2022/04/26 08:10:30;;;;;;;7.40;6.63;;;12.10;99.90;;;;;;5041306;28;20279;-74
2022/04/26 08:12:59;;;;;;;10.07;5.77;;;12.40;99.90;;;;;;5042943;28;20232;-74
2022/04/26 08:15:29;;;;;;;6.87;5.90;;;12.90;99.90;;;;;;5049217;28;20185;-73
2022/04/26 08:17:57;;;;;;;7.33;5.43;;;13.40;99.90;;;;;;5043227;28;20701;-73
2022/04/26 08:20:26;;;;;;;6.87;4.77;;;13.80;99.90;;;;;;5043403;28;20650;-73
2022/04/26 08:22:54;;;;;;;5.37;4.90;;;14.00;99.90;;;;;;5030401;28;20272;-72
2022/04/26 08:28:08;;;;;;;5.00;4.50;;;14.70;99.90;;;;;;5041560;28;20209;-73
2022/04/26 08:30:38;;;;;;;8.47;4.60;;;15.00;99.90;;;;;;5042134;28;20197;-73
2022/04/26 08:33:06;;;;;;;6.40;4.90;;;15.20;99.90;;;;;;5040277;28;20215;-74
2022/04/26 08:35:35;;;;;;;7.17;4.30;;;15.40;99.90;;;;;;5037786;28;20201;-73
2022/04/26 08:38:24;;;;;;;5.77;4.70;;;15.70;99.90;;;;;;5039640;28;20302;-72
2022/04/26 08:40:52;;;;;;;4.60;4.20;;;16.30;99.90;;;;;;5041428;28;20570;-74
2022/04/26 08:43:20;;;;;;;8.73;3.97;;;16.50;99.90;;;;;;5043496;28;20189;-73
2022/04/26 08:45:50;;;;;;;4.90;4.43;;;16.50;99.90;;;;;;5038765;28;20729;-74
2022/04/26 08:51:05;;;;;;;4.80;4.40;;;16.40;99.90;;;;;;5044076;28;20283;-73
2022/04/26 08:53:37;;;;;;;7.53;4.37;;;16.10;99.90;;;;;;5040048;28;20209;-73
2022/04/26 08:56:07;;;;;;;5.50;4.50;;;16.20;99.90;;;;;;5042088;28;20715;-73
2022/04/26 08:58:36;;;;;;;10.03;4.70;;;15.90;99.90;;;;;;5042744;28;20203;-73
2022/04/26 09:01:12;;;;;;;5.00;4.60;;;15.50;99.90;;;;;;5043369;28;20331;-73
2022/04/26 09:03:54;;;;;;;6.10;4.23;;;16.00;99.90;;;;;;5041416;28;20185;-74
2022/04/26 09:06:34;;;;;;;6.03;4.30;;;16.50;99.90;;;;;;5044183;28;20231;-74
2022/04/26 09:09:08;;;;;;;4.60;4.20;;;17.40;99.90;;;;;;5043819;28;20204;-74
2022/04/26 09:11:37;;;;;;;4.93;4.07;;;17.70;99.90;;;;;;5042641;28;20291;-72
2022/04/26 09:14:08;;;;;;;9.67;4.03;;;17.60;99.90;;;;;;5041614;28;20224;-73
2022/04/26 09:16:38;;;;;;;6.47;4.20;;;18.30;99.90;;;;;;5044570;28;20597;-73
2022/04/26 09:19:07;;;;;;;6.33;4.80;;;18.50;99.90;;;;;;5040290;28;20188;-72
2022/04/26 09:21:37;;;;;;;5.60;4.00;;;18.10;99.90;;;;;;5046174;28;20198;-72
2022/04/26 09:24:07;;;;;;;7.80;4.40;;;17.90;99.90;;;;;;5034957;28;20750;-72
2022/04/26 09:26:37;;;;;;;6.90;4.50;;;17.60;99.90;;;;;;5045274;28;20197;-73
2022/04/26 09:29:06;;;;;;;7.13;4.30;;;17.10;99.90;;;;;;5037587;28;20199;-72
2022/04/26 09:31:37;;;;;;;4.40;4.00;;;16.80;99.90;;;;;;5041724;28;20232;-72
2022/04/26 09:34:12;;;;;;;7.30;4.10;;;17.00;99.90;;;;;;5041242;28;20243;-72
2022/04/26 09:36:45;;;;;;;4.30;3.90;;;17.60;99.90;;;;;;5046355;28;20223;-73
2022/04/26 09:39:18;;;;;;;5.50;4.20;;;18.10;99.90;;;;;;5041849;28;20216;-73
2022/04/26 09:42:07;;;;;;;5.17;4.33;;;18.20;99.90;;;;;;5041031;28;20199;-73
2022/04/26 09:44:41;;;;;;;5.67;4.43;;;17.90;99.90;;;;;;5045519;28;20188;-73
2022/04/26 09:47:09;;;;;;;5.13;3.73;;;17.60;99.90;;;;;;5032683;28;20210;-72
2022/04/26 09:49:40;;;;;;;5.63;3.73;;;17.60;99.90;;;;;;5045078;28;20197;-73
2022/04/26 09:52:13;;;;;;;8.30;3.83;;;17.30;99.90;;;;;;5046689;28;20252;-73
2022/04/26 09:54:42;;;;;;;4.70;3.87;;;17.00;99.90;;;;;;5045605;28;20546;-73
2022/04/26 09:57:15;;;;;;;6.60;3.70;;;17.60;99.90;;;;;;5046624;28;20200;-73
2022/04/26 10:00:06;;;;;;;4.53;3.87;;;18.00;99.90;;;;;;5044889;28;20204;-73
2022/04/26 10:02:37;;;;;;;5.53;3.70;;;18.40;99.90;;;;;;5047788;28;20223;-73
2022/04/26 10:05:49;;;;;;;6.30;3.87;;;19.50;99.90;;;;;;5046521;28;20250;-73
2022/04/26 10:08:19;;;;;;;3.77;3.47;;;19.70;99.90;;;;;;5042452;28;20339;-72
2022/04/26 10:10:48;;;;;;;12.50;3.87;;;19.80;99.90;;;;;;5046769;28;20293;-73
2022/04/26 10:13:35;;;;;;;3.73;3.50;;;20.30;99.90;;;;;;5042964;28;20229;-73
2022/04/26 10:16:05;;;;;;;5.03;3.57;;;20.00;99.90;;;;;;5043408;28;20298;-73
2022/04/26 10:18:35;;;;;;;3.93;3.63;;;19.40;99.90;;;;;;5044546;28;20197;-73
2022/04/26 10:21:07;;;;;;;6.47;3.03;;;19.60;99.90;;;;;;5044090;28;20266;-73
2022/04/26 10:24:13;;;;;;;3.77;3.37;;;19.40;99.90;;;;;;5046402;28;20256;-71
2022/04/26 10:26:43;;;;;;;5.27;3.50;;;19.50;99.90;;;;;;5049065;28;20206;-74
2022/04/26 10:29:18;;;;;;;10.87;3.77;;;19.90;99.90;;;;;;5041783;28;20671;-73
2022/04/26 10:31:47;;;;;;;4.30;3.50;;;19.70;99.90;;;;;;5045705;28;20225;-73
2022/04/26 10:34:30;;;;;;;11.60;3.40;;;19.40;99.90;;;;;;5049858;28;20234;-72
2022/04/26 10:37:03;;;;;;;6.67;3.83;;;18.90;99.90;;;;;;5052380;28;20563;-72
2022/04/26 10:39:36;;;;;;;4.27;3.37;;;19.30;99.90;;;;;;5048208;28;20197;-72
2022/04/26 10:42:26;;;;;;;3.80;3.47;;;20.20;99.90;;;;;;5045860;28;20203;-72
2022/04/26 10:44:59;;;;;;;6.83;3.70;;;20.20;99.40;;;;;;5045306;28;20238;-72
2022/04/26 10:47:31;;;;;;;4.03;3.73;;;20.60;99.60;;;;;;5047205;28;20603;-72
2022/04/26 10:49:59;;;;;;;6.13;3.93;;;20.70;99.90;;;;;;5047545;28;20685;-72
2022/04/26 10:52:38;;;;;;;4.67;3.90;;;20.80;99.00;;;;;;5042449;28;20251;-72
2022/04/26 10:55:18;;;;;;;4.40;3.90;;;20.50;99.00;;;;;;5041552;28;20233;-72
2022/04/26 10:57:50;;;;;;;6.00;4.20;;;20.30;99.20;;;;;;5045274;28;20202;-72
2022/04/26 11:00:21;;;;;;;4.93;4.30;;;19.40;98.80;;;;;;5047164;28;20552;-72
2022/04/26 11:02:51;;;;;;;4.23;3.83;;;18.90;99.90;;;;;;5047648;28;20245;-72
2022/04/26 11:05:25;;;;;;;7.43;4.27;;;19.40;99.10;;;;;;5043250;28;20193;-71
2022/04/26 11:07:55;;;;;;;4.33;3.93;;;18.50;99.90;;;;;;5040162;28;20845;-70
2022/04/26 11:10:25;;;;;;;3.80;3.50;;;18.80;99.90;;;;;;5042445;28;20205;-71
2022/04/26 11:12:55;;;;;;;4.33;3.93;;;19.50;99.20;;;;;;5049771;28;20209;-71
2022/04/26 11:15:24;;;;;;;6.40;3.77;;;20.10;98.60;;;;;;5044427;28;20201;-71
2022/04/26 11:17:54;;;;;;;5.50;3.80;;;20.20;97.60;;;;;;5048419;28;20300;-72
2022/04/26 11:20:24;;;;;;;4.20;3.60;;;20.00;96.90;;;;;;5046976;28;20189;-72
2022/04/26 11:22:55;;;;;;;4.43;3.43;;;20.00;97.40;;;;;;5046194;28;20222;-73
2022/04/26 11:28:18;;;;;;;6.30;3.90;;;19.60;98.40;;;;;;5025795;28;20363;-71
2022/04/26 11:30:48;;;;;;;5.30;3.70;;;19.70;98.40;;;;;;5045263;28;20291;-71
2022/04/26 11:33:19;;;;;;;4.93;3.43;;;19.80;98.10;;;;;;5047080;28;20219;-71
2022/04/26 11:35:52;;;;;;;4.00;3.70;;;20.00;96.80;;;;;;5047259;28;20252;-71
2022/04/26 11:38:25;;;;;;;4.67;4.27;;;20.00;97.50;;;;;;5045982;28;20214;-71
2022/04/26 11:40:55;;;;;;;6.00;3.83;;;19.80;98.50;;;;;;5048284;28;20211;-71
2022/04/26 11:43:24;;;;;;;3.90;3.60;;;20.00;97.90;;;;;;5043901;28;20201;-71
2022/04/26 11:45:54;;;;;;;3.60;3.40;;;20.10;97.10;;;;;;5044339;28;20233;-71
2022/04/26 11:48:25;;;;;;;15.67;4.17;;;19.80;97.10;;;;;;5045505;28;20928;-71
2022/04/26 11:50:55;;;;;;;6.00;3.67;;;19.80;98.70;;;;;;5043296;28;20719;-71
2022/04/26 11:53:26;;;;;;;19.97;3.87;;;19.90;97.10;;;;;;5044567;28;20251;-71
2022/04/26 11:55:56;;;;;;;3.77;3.50;;;20.00;96.90;;;;;;5047349;28;20299;-71
2022/04/26 11:58:33;;;;;;;4.20;3.80;;;19.90;97.20;;;;;;5046429;28;20204;-70
2022/04/26 12:01:03;;;;;;;6.83;4.00;;;19.90;97.30;;;;;;5044710;28;20275;-71
2022/04/26 12:03:38;;;;;;;5.30;4.23;;;19.80;97.50;;;;;;5041349;28;20277;-70
2022/04/26 12:06:08;;;;;;;4.83;4.07;;;19.30;95.90;;;;;;5046645;28;20232;-71
2022/04/26 12:08:42;;;;;;;4.00;3.70;;;18.90;96.30;;;;;;5040513;28;20540;-71
2022/04/26 12:11:19;;;;;;;8.13;4.07;;;19.10;99.40;;;;;;5042708;28;20200;-71
2022/04/26 12:13:59;;;;;;;6.77;3.40;;;19.00;97.60;;;;;;5040282;28;20723;-71
2022/04/26 12:16:28;;;;;;;3.97;3.60;;;19.20;95.80;;;;;;5042640;28;20293;-71
2022/04/26 12:18:59;;;;;;;5.47;4.07;;;19.30;96.00;;;;;;5051760;28;20200;-71
2022/04/26 12:21:28;;;;;;;6.50;4.17;;;18.90;95.10;;;;;;5039944;28;20231;-68
2022/04/26 12:24:17;;;;;;;4.73;3.90;;;18.40;97.20;;;;;;5043091;28;20197;-71
2022/04/26 12:26:55;;;;;;;5.07;4.07;;;18.60;97.10;;;;;;5042035;28;20181;-71
2022/04/26 12:29:26;;;;;;;4.23;3.67;;;18.80;97.30;;;;;;5045420;28;20207;-71
2022/04/26 12:31:54;;;;;;;4.03;3.83;;;18.90;96.10;;;;;;5045754;28;20189;-71
2022/04/26 12:34:24;;;;;;;4.37;4.07;;;18.80;94.50;;;;;;5047742;28;20964;-71
2022/04/26 12:36:58;;;;;;;7.33;4.20;;;18.00;95.00;;;;;;5043309;28;20201;-71
2022/04/26 12:39:41;;;;;;;6.40;3.97;;;18.10;97.00;;;;;;5045482;28;20200;-71
2022/04/26 12:42:12;;;;;;;5.10;4.60;;;18.20;96.00;;;;;;5046748;28;20196;-71
2022/04/26 12:44:51;;;;;;;6.70;4.37;;;18.20;97.90;;;;;;5045161;28;20213;-71
2022/04/26 12:52:56;;;;;;;10.47;4.67;;;17.80;98.30;;;;;;5041130;28;20275;-70
2022/04/26 12:55:27;;;;;;;6.50;4.50;;;18.40;99.90;;;;;;5043750;28;20657;-70
2022/04/26 12:57:57;;;;;;;8.27;5.20;;;18.80;99.90;;;;;;5043422;28;20342;-71
2022/04/26 13:00:27;;;;;;;8.20;5.20;;;18.70;99.70;;;;;;5048709;28;20199;-70
2022/04/26 13:02:58;;;;;;;5.93;4.80;;;18.50;99.40;;;;;;5043010;28;20204;-71
2022/04/26 13:05:37;;;;;;;9.83;5.50;;;18.40;99.30;;;;;;5047710;28;20228;-70
2022/04/26 13:08:06;;;;;;;8.53;5.00;;;18.10;99.90;;;;;;5039434;28;20205;-70
2022/04/26 13:10:36;;;;;;;8.87;5.03;;;18.20;99.90;;;;;;5040298;28;20200;-70
2022/04/26 13:13:05;;;;;;;5.53;4.77;;;18.40;99.70;;;;;;5040821;28;20198;-70
2022/04/26 13:15:34;;;;;;;5.43;5.00;;;18.10;99.90;;;;;;5043356;28;20279;-70
2022/04/26 13:18:03;;;;;;;6.47;5.00;;;17.80;99.90;;;;;;5041348;28;20208;-70
2022/04/26 13:20:32;;;;;;;5.63;5.13;;;17.60;99.90;;;;;;5043923;28;20271;-70
2022/04/26 13:23:00;;;;;;;12.83;6.00;;;17.30;99.60;;;;;;5037013;28;20621;-70
2022/04/26 13:25:29;;;;;;;8.33;5.90;;;17.40;99.90;;;;;;5036672;28;20191;-70
2022/04/26 13:27:59;;;;;;;8.77;5.47;;;17.40;99.90;;;;;;5037698;28;20197;-71
2022/04/26 13:30:27;;;;;;;5.80;5.20;;;17.60;99.90;;;;;;5041204;28;20291;-71
2022/04/26 13:32:55;;;;;;;8.30;5.63;;;18.00;99.90;;;;;;5044684;28;20203;-72
2022/04/26 13:35:25;;;;;;;5.93;5.20;;;17.90;99.70;;;;;;5042353;28;20586;-72
2022/04/26 13:37:54;;;;;;;6.10;5.50;;;17.60;99.90;;;;;;5037220;28;20252;-72
2022/04/26 13:40:23;;;;;;;8.07;5.47;;;17.50;99.90;;;;;;5038246;28;20772;-72
2022/04/26 13:42:58;;;;;;;9.53;5.40;;;17.60;99.80;;;;;;5036723;28;20227;-71
2022/04/26 13:45:26;;;;;;;7.73;5.40;;;17.90;99.90;;;;;;5036920;28;20220;-72
2022/04/26 13:47:55;;;;;;;5.73;5.23;;;18.10;99.90;;;;;;5042612;28;20244;-72
2022/04/26 13:50:24;;;;;;;5.27;4.77;;;17.80;99.90;;;;;;5039561;28;20212;-72
2022/04/26 13:52:52;;;;;;;6.13;5.10;;;18.20;99.90;;;;;;5043881;28;20228;-71
2022/04/26 13:55:21;;;;;;;8.37;5.30;;;18.60;99.90;;;;;;5018881;28;20209;-72
2022/04/26 13:57:49;;;;;;;6.70;5.07;;;18.50;99.90;;;;;;5042103;28;21609;-72
2022/04/26 14:00:19;;;;;;;6.73;5.17;;;18.20;99.50;;;;;;5044934;28;20200;-72
2022/04/26 14:02:48;;;;;;;5.17;4.67;;;17.70;99.90;;;;;;5043385;28;20232;-71
2022/04/26 14:05:18;;;;;;;6.97;5.03;;;17.70;99.90;;;;;;5042866;28;20216;-72
2022/04/26 14:07:47;;;;;;;5.70;5.00;;;17.60;99.90;;;;;;5042205;28;20676;-72
2022/04/26 14:10:17;;;;;;;5.60;5.20;;;17.60;99.90;;;;;;5044231;28;20220;-72
2022/04/26 14:12:45;;;;;;;5.93;5.10;;;18.10;99.90;;;;;;5035496;28;20193;-72
2022/04/26 14:23:35;;;;;;;5.10;4.70;;;19.00;99.80;;;;;;5041213;28;20636;-72
2022/04/26 14:26:07;;;;;;;7.47;5.03;;;18.80;98.90;;;;;;5045667;28;20213;-72
2022/04/26 14:28:35;;;;;;;6.30;4.83;;;18.40;98.80;;;;;;5040123;28;20659;-72
2022/04/26 14:31:03;;;;;;;7.00;5.23;;;18.40;98.50;;;;;;5042778;28;20276;-71
2022/04/26 14:33:33;;;;;;;7.00;4.50;;;18.10;99.50;;;;;;5039911;28;20781;-72
2022/04/26 14:36:02;;;;;;;9.13;4.83;;;18.20;99.90;;;;;;5045020;28;20216;-72
2022/04/26 14:38:30;;;;;;;11.53;4.97;;;18.50;99.90;;;;;;5041467;28;20553;-72
2022/04/26 14:40:59;;;;;;;7.53;4.47;;;18.30;98.50;;;;;;5049102;28;20211;-72
2022/04/26 14:43:27;;;;;;;7.53;4.43;;;17.90;99.80;;;;;;5045685;28;20645;-72
2022/04/26 14:45:56;;;;;;;5.50;4.67;;;18.00;99.20;;;;;;5046388;28;20201;-72
2022/04/26 14:48:26;;;;;;;4.50;4.10;;;18.10;98.60;;;;;;5047702;28;20192;-72
2022/04/26 14:50:57;;;;;;;5.80;4.47;;;18.20;99.60;;;;;;5044228;28;20609;-72
2022/04/26 14:53:26;;;;;;;10.53;4.40;;;18.60;99.20;;;;;;5044364;28;20204;-72
2022/04/26 14:56:10;;;;;;;5.17;4.07;;;18.50;99.40;;;;;;5043477;28;20299;-72
2022/04/26 14:59:02;;;;;;;6.93;4.23;;;18.90;99.80;;;;;;5041699;28;20197;-72
2022/04/26 15:01:36;;;;;;;7.53;4.67;;;19.10;99.90;;;;;;5046876;28;20199;-72
2022/04/26 15:04:05;;;;;;;10.63;4.60;;;19.50;99.90;;;;;;5040156;28;20653;-72
2022/04/26 15:06:35;;;;;;;7.50;3.80;;;19.50;99.90;;;;;;5043399;28;20280;-72
2022/04/26 15:16:37;;;;;;;4.60;4.30;;;18.60;98.80;;;;;;5045755;28;20207;-71
2022/04/26 15:17:23;;;;;;;6.33;4.57;;;18.20;99.50;;;;;;5042213;28;20206;-72
2022/04/26 15:19:51;;;;;;;5.87;4.70;;;17.60;99.90;;;;;;5044469;28;20236;-72
2022/04/26 15:22:22;;;;;;;5.60;4.70;;;17.20;99.60;;;;;;5045219;28;20201;-71
2022/04/26 15:24:54;;;;;;;8.70;4.60;;;17.50;99.90;;;;;;5043734;28;20201;-72
2022/04/26 15:27:22;;;;;;;5.10;4.63;;;17.80;99.90;;;;;;5043310;28;20304;-72
2022/04/26 15:29:51;;;;;;;6.90;4.43;;;17.60;99.70;;;;;;5041817;28;20541;-72
2022/04/26 15:32:23;;;;;;;6.00;4.77;;;17.50;99.90;;;;;;5040785;28;20281;-71
2022/04/26 15:34:51;;;;;;;7.03;4.67;;;17.90;99.90;;;;;;5044667;28;20264;-72
2022/04/26 15:37:24;;;;;;;5.80;4.50;;;18.30;99.30;;;;;;5047065;28;20230;-72
2022/04/26 15:39:53;;;;;;;5.10;4.57;;;18.40;99.90;;;;;;5036917;28;20406;-72
2022/04/26 15:42:21;;;;;;;4.57;4.17;;;18.60;99.90;;;;;;5042963;28;20202;-72
2022/04/26 15:44:50;;;;;;;7.13;4.43;;;18.80;99.00;;;;;;5042811;28;20236;-72
2022/04/26 15:47:18;;;;;;;4.77;3.90;;;19.00;99.40;;;;;;5046338;28;20624;-72
2022/04/26 15:49:47;;;;;;;5.73;3.97;;;18.90;99.70;;;;;;5043050;28;20196;-72
2022/04/26 15:52:15;;;;;;;6.00;4.43;;;18.80;98.80;;;;;;5045545;28;20666;-72
2022/04/26 15:54:45;;;;;;;5.80;4.40;;;18.70;99.90;;;;;;5046213;28;20277;-72
2022/04/26 15:57:14;;;;;;;5.17;4.07;;;18.70;99.30;;;;;;5048938;28;20698;-72
2022/04/26 15:59:43;;;;;;;6.07;4.53;;;18.90;99.90;;;;;;5042842;28;20194;-72
2022/04/26 16:02:11;;;;;;;5.03;3.93;;;19.00;99.20;;;;;;5046538;28;20220;-72
2022/04/26 16:04:40;;;;;;;4.73;4.20;;;18.90;98.80;;;;;;5042909;28;20247;-72
2022/04/26 16:07:08;;;;;;;6.23;4.07;;;18.60;99.70;;;;;;5047283;28;20393;-71
2022/04/26 16:20:44;;;;;;;4.67;4.20;;;18.20;99.80;;;;;;5033982;28;20203;-70
2022/04/26 16:23:13;;;;;;;4.87;4.30;;;18.00;99.20;;;;;;5047513;28;20204;-72
2022/04/26 16:25:42;;;;;;;4.70;4.30;;;18.10;99.90;;;;;;5042888;28;20284;-72
2022/04/26 16:28:12;;;;;;;4.47;4.20;;;17.80;99.50;;;;;;5049153;28;20208;-71
2022/04/26 16:30:41;;;;;;;8.50;4.43;;;17.70;99.70;;;;;;5045576;28;20236;-72
2022/04/26 16:33:12;;;;;;;6.30;4.13;;;17.70;99.60;;;;;;5048433;28;20201;-71
2022/04/26 16:35:41;;;;;;;3.90;3.63;;;17.70;99.50;;;;;;5043138;28;20245;-71
2022/04/26 16:38:09;;;;;;;4.30;3.73;;;17.60;99.90;;;;;;5045364;28;20274;-71
2022/04/26 16:40:39;;;;;;;4.40;4.00;;;17.30;99.90;;;;;;5044992;28;20280;-72
2022/04/26 16:43:07;;;;;;;3.63;3.30;;;17.00;99.80;;;;;;5045934;28;20751;-68
2022/04/26 16:45:37;;;;;;;7.37;4.27;;;17.00;99.70;;;;;;5046919;28;20575;-72
2022/04/26 16:48:06;;;;;;;4.53;3.80;;;17.00;99.90;;;;;;5046342;28;20567;-73
2022/04/26 16:50:34;;;;;;;4.30;3.90;;;17.00;99.90;;;;;;5044720;28;20200;-71
2022/04/26 16:53:04;;;;;;;3.57;3.37;;;17.00;99.90;;;;;;5030595;28;20192;-72
2022/04/26 16:55:33;;;;;;;5.70;3.57;;;17.10;99.70;;;;;;5047335;28;20193;-71
2022/04/26 16:58:02;;;;;;;5.27;3.70;;;16.80;99.70;;;;;;5048853;28;20208;-71
2022/04/26 17:00:31;;;;;;;6.23;3.60;;;16.70;99.90;;;;;;5047133;28;20215;-71
2022/04/26 17:03:01;;;;;;;5.37;3.47;;;16.60;99.60;;;;;;5046851;28;20201;-75
2022/04/26 17:05:30;;;;;;;4.03;3.30;;;16.40;99.90;;;;;;5045944;28;20216;-72
2022/04/26 17:07:58;;;;;;;4.43;3.43;;;16.40;99.70;;;;;;5045221;28;20188;-72
2022/04/26 17:10:27;;;;;;;3.70;3.40;;;16.30;99.90;;;;;;5038487;28;20206;-72
2022/04/26 17:12:55;;;;;;;3.50;3.37;;;16.50;99.90;;;;;;5037901;28;20509;-66
2022/04/26 17:15:24;;;;;;;6.47;3.60;;;16.40;99.70;;;;;;5044712;28;20196;-77
2022/04/26 17:17:53;;;;;;;4.90;3.67;;;16.10;99.70;;;;;;5040937;28;20227;-73
2022/04/26 17:20:32;;;;;;;4.13;3.83;;;15.80;99.90;;;;;;5039207;28;20211;-74
2022/04/26 17:23:01;;;;;;;4.20;3.73;;;15.50;99.90;;;;;;5042996;28;20204;-74
2022/04/26 17:25:30;;;;;;;6.43;3.53;;;15.20;99.90;;;;;;5021482;28;20228;-75
2022/04/26 17:28:14;;;;;;;3.97;3.40;;;14.90;99.90;;;;;;5040696;28;20326;-75
2022/04/26 17:30:42;;;;;;;4.23;3.47;;;14.70;99.90;;;;;;5044597;28;20232;-72